CheckWX is a tool to help pilots better visualize weather data.  It is not intended as a substitute for an official pre-flight weather briefing.

16:32:16 UTC

LEAB TAF
Albacete-Los Llanos Airport
Albacete, Spain
TAF LEAB 261400Z 2615/2624 12015KT CAVOK PROB30 TEMPO 2615/2619 10015G25KT BECMG 2621/2623 VRB05KT

Mar-26@
15:00 UTC

Mar-26 @ 15:00 UTC

Mar-26@
21:00 UTC

Mar-26 @ 21:00 UTC

TAF LEAB 261400Z 2615/2624 12015KT CAVOK
Wind
  • 120° at 15 KTS
Conditions
No significant weather
Cloud Levels
  • No significant clouds

Mar-26@
15:00 UTC

Mar-26 @ 15:00 UTC

Mar-26@
19:00 UTC

Mar-26 @ 19:00 UTC

PROB30 TEMPO 2615/2619 10015G25KT

Temporary - 30% Likelihood

Temporary - 30% Likelihood during this time.

Wind
  • 100° at 15 KTS
  • {Gusting to 25 KTS

Mar-26@
21:00 UTC

Mar-26 @ 21:00 UTC

Mar-27@
00:00 UTC

Mar-27 @ 00:00 UTC

BECMG 2621/2623 VRB05KT

Becoming

Becoming Conditions expected by Tue, Mar 26, 2019 @ 23:00 UTC

Wind
  • Variable at 5 KTS
Conditions
No significant weather
Cloud Levels
  • No significant clouds